createdAt,value
2022-10-05T00:01:33.478Z,22.10
2022-10-05T00:04:20.639Z,22.20
2022-10-05T00:07:16.085Z,22.20
2022-10-05T00:09:50.340Z,22.20
2022-10-05T00:12:24.784Z,22.20
2022-10-05T00:14:59.443Z,22.10
2022-10-05T00:17:32.340Z,22.20
2022-10-05T00:20:03.226Z,22.20
2022-10-05T00:22:35.272Z,22.20
2022-10-05T00:25:13.165Z,22.20
2022-10-05T00:27:43.656Z,22.10
2022-10-05T00:30:20.791Z,22.10
2022-10-05T00:32:53.033Z,22.10
2022-10-05T00:35:26.148Z,22.10
2022-10-05T00:37:57.677Z,22.10
2022-10-05T00:40:42.295Z,22.20
2022-10-05T00:43:25.483Z,22.20
2022-10-05T00:46:22.866Z,22.10
2022-10-05T00:49:17.796Z,22.10
2022-10-05T00:52:07.798Z,22.10
2022-10-05T00:54:49.176Z,22.10
2022-10-05T00:57:39.084Z,22.10
2022-10-05T01:00:15.109Z,22.10
2022-10-05T01:03:04.221Z,22.00
2022-10-05T01:06:03.135Z,22.10
2022-10-05T01:09:00.264Z,22.10
2022-10-05T01:11:39.343Z,22.20
2022-10-05T01:14:24.866Z,22.20
2022-10-05T01:17:16.003Z,22.30
2022-10-05T01:20:12.662Z,22.30
2022-10-05T01:23:10.895Z,22.30
2022-10-05T01:26:10.572Z,22.30
2022-10-05T01:28:50.274Z,22.30
2022-10-05T01:31:45.277Z,22.30
2022-10-05T01:34:41.185Z,22.30
2022-10-05T01:37:41.384Z,22.30
2022-10-05T01:40:21.532Z,22.30
2022-10-05T01:42:58.101Z,22.30
2022-10-05T01:45:44.776Z,22.20
2022-10-05T01:48:44.421Z,22.20
2022-10-05T01:51:36.731Z,22.10
2022-10-05T01:54:29.010Z,22.10
2022-10-05T01:57:12.465Z,22.00
2022-10-05T02:00:07.616Z,22.00
2022-10-05T02:02:44.450Z,21.90
2022-10-05T02:05:25.944Z,21.90
2022-10-05T02:08:05.294Z,21.90
2022-10-05T02:10:43.129Z,21.90
2022-10-05T02:13:19.068Z,21.90
2022-10-05T02:15:57.831Z,21.90
2022-10-05T02:18:36.847Z,21.90
2022-10-05T02:21:07.598Z,21.90
2022-10-05T02:23:43.040Z,21.90
2022-10-05T02:26:14.784Z,21.80
2022-10-05T02:28:50.695Z,21.80
2022-10-05T02:31:28.252Z,21.80
2022-10-05T02:34:24.859Z,21.90
2022-10-05T02:37:14.724Z,22.00
2022-10-05T02:40:07.619Z,22.00
2022-10-05T02:43:14.848Z,22.10
2022-10-05T02:46:08.542Z,22.10
2022-10-05T02:49:00.585Z,22.00
2022-10-05T02:51:41.361Z,22.10
2022-10-05T02:54:26.239Z,22.00
2022-10-05T02:57:06.904Z,22.00
2022-10-05T02:59:52.534Z,22.20
2022-10-05T03:02:31.343Z,22.30
2022-10-05T03:05:26.192Z,22.30
2022-10-05T03:08:07.189Z,22.50
2022-10-05T03:11:06.559Z,22.60
2022-10-05T03:13:54.575Z,22.60
2022-10-05T03:16:47.100Z,22.70
2022-10-05T03:19:34.773Z,22.70
2022-10-05T03:22:35.426Z,22.60
2022-10-05T03:25:35.856Z,22.60
2022-10-05T03:28:44.769Z,22.60
2022-10-05T03:31:38.061Z,22.60
2022-10-05T03:34:20.068Z,22.60
2022-10-05T03:37:05.644Z,22.50
2022-10-05T03:40:01.962Z,22.50
2022-10-05T03:43:08.918Z,22.50
2022-10-05T03:45:53.417Z,22.60
2022-10-05T03:48:35.852Z,22.50
2022-10-05T03:51:21.368Z,22.60
2022-10-05T03:53:58.877Z,22.70
2022-10-05T03:56:43.392Z,22.70
2022-10-05T03:59:23.607Z,22.70
2022-10-05T04:01:58.954Z,22.70
2022-10-05T04:04:47.676Z,22.70
2022-10-05T04:07:30.058Z,22.80
2022-10-05T04:10:02.904Z,22.80
2022-10-05T04:12:40.079Z,22.90
2022-10-05T04:15:39.603Z,22.60
2022-10-05T04:18:30.557Z,22.80
2022-10-05T04:21:23.656Z,22.90
2022-10-05T04:24:10.951Z,22.90
2022-10-05T04:26:53.340Z,22.90
2022-10-05T04:29:38.449Z,22.90
2022-10-05T04:32:32.654Z,22.90
2022-10-05T04:35:32.122Z,22.90
2022-10-05T04:38:31.781Z,23.00
2022-10-05T04:41:31.823Z,23.10
2022-10-05T04:44:12.173Z,23.10
2022-10-05T04:47:06.283Z,23.10
2022-10-05T04:50:05.024Z,23.10
2022-10-05T04:53:04.485Z,23.10
2022-10-05T04:56:13.225Z,23.20
2022-10-05T04:59:12.947Z,23.10
2022-10-05T05:02:08.458Z,23.10
2022-10-05T05:05:14.782Z,23.10
2022-10-05T05:08:06.100Z,23.20
2022-10-05T05:11:13.666Z,23.30
2022-10-05T05:14:04.641Z,23.30
2022-10-05T05:16:43.869Z,23.20
2022-10-05T05:19:50.028Z,23.30
2022-10-05T05:22:46.560Z,23.30
2022-10-05T05:25:34.590Z,23.40
2022-10-05T05:28:31.757Z,23.40
2022-10-05T05:31:30.512Z,23.30
2022-10-05T05:34:19.051Z,23.40
2022-10-05T05:37:15.018Z,23.40
2022-10-05T05:40:15.767Z,23.40
2022-10-05T05:43:01.503Z,23.50
2022-10-05T05:45:46.250Z,23.50
2022-10-05T05:48:24.497Z,23.50
2022-10-05T05:51:16.315Z,23.50
2022-10-05T05:53:52.314Z,23.50
2022-10-05T05:56:35.369Z,23.50
2022-10-05T05:59:27.046Z,23.50
2022-10-05T06:02:09.684Z,23.50
2022-10-05T06:04:47.463Z,23.50
2022-10-05T06:07:25.657Z,23.50
2022-10-05T06:10:29.085Z,23.50
2022-10-05T06:13:06.438Z,23.50
2022-10-05T06:15:44.740Z,23.50
2022-10-05T06:18:20.224Z,23.50
2022-10-05T06:21:19.287Z,23.50
2022-10-05T06:24:21.105Z,23.60
2022-10-05T06:27:26.152Z,23.70
2022-10-05T06:30:19.540Z,23.60
2022-10-05T06:33:19.388Z,23.60
2022-10-05T06:36:09.455Z,23.60
2022-10-05T06:38:49.748Z,23.60
2022-10-05T06:41:49.921Z,23.60
2022-10-05T06:44:40.082Z,23.50
2022-10-05T06:47:40.084Z,23.60
2022-10-05T06:50:18.264Z,23.60
2022-10-05T06:53:20.432Z,23.60
2022-10-05T06:56:00.477Z,23.60
2022-10-05T06:58:40.705Z,23.60
2022-10-05T07:01:49.987Z,23.50
2022-10-05T07:04:46.998Z,23.50
2022-10-05T07:07:41.290Z,23.50
2022-10-05T07:10:35.958Z,23.50
2022-10-05T07:13:26.207Z,23.50
2022-10-05T07:16:32.009Z,23.60
2022-10-05T07:19:20.350Z,23.60
2022-10-05T07:22:09.166Z,23.80
2022-10-05T07:25:05.853Z,23.90
2022-10-05T07:27:40.602Z,23.90
2022-10-05T07:30:17.398Z,24.00
2022-10-05T07:33:15.931Z,24.10
2022-10-05T07:36:23.377Z,23.90
2022-10-05T07:39:08.483Z,24.10
2022-10-05T07:41:49.727Z,24.20
2022-10-05T07:44:37.349Z,24.20
2022-10-05T07:47:34.665Z,24.20
2022-10-05T07:50:18.080Z,24.20
2022-10-05T07:52:58.914Z,24.30
2022-10-05T07:55:39.933Z,24.40
2022-10-05T07:58:37.813Z,24.40
2022-10-05T08:01:31.719Z,24.40
2022-10-05T08:04:24.066Z,24.40
2022-10-05T08:07:00.419Z,24.50
2022-10-05T08:09:40.197Z,24.50
2022-10-05T08:12:25.147Z,24.60
2022-10-05T08:15:05.636Z,24.60
2022-10-05T08:18:03.758Z,24.70
2022-10-05T08:20:50.523Z,24.70
2022-10-05T08:24:00.181Z,24.60
2022-10-05T08:26:56.400Z,24.60
2022-10-05T08:29:49.593Z,24.70
2022-10-05T08:32:28.343Z,24.80
2022-10-05T08:35:26.397Z,24.80
2022-10-05T08:37:58.705Z,24.90
2022-10-05T08:41:07.890Z,24.90
2022-10-05T08:44:07.208Z,25.10
2022-10-05T08:47:07.571Z,25.20
2022-10-05T08:49:58.773Z,25.10
2022-10-05T08:52:54.113Z,25.20
2022-10-05T08:55:43.515Z,25.20
2022-10-05T08:58:36.628Z,25.20
2022-10-05T09:01:18.309Z,25.20
2022-10-05T09:04:18.287Z,25.30
2022-10-05T09:07:18.624Z,25.30
2022-10-05T09:10:19.007Z,25.20
2022-10-05T09:13:18.826Z,25.20
2022-10-05T09:16:18.092Z,25.10
2022-10-05T09:19:27.339Z,25.10
2022-10-05T09:22:14.886Z,25.00
2022-10-05T09:25:06.257Z,25.00
2022-10-05T09:27:41.143Z,24.90
2022-10-05T09:30:43.629Z,24.90
2022-10-05T09:33:50.972Z,24.80
2022-10-05T09:36:50.589Z,24.70
2022-10-05T09:39:51.318Z,24.70
2022-10-05T09:42:40.563Z,24.70
2022-10-05T09:45:44.343Z,24.70
2022-10-05T09:48:53.710Z,24.60
2022-10-05T09:52:02.043Z,24.60
2022-10-05T09:55:03.919Z,24.60
2022-10-05T09:57:53.966Z,24.60
2022-10-05T10:00:59.543Z,24.60
2022-10-05T10:04:12.075Z,24.50
2022-10-05T10:07:15.524Z,24.60
2022-10-05T10:10:24.652Z,24.70
2022-10-05T10:13:21.461Z,24.80
2022-10-05T10:16:13.395Z,24.80
2022-10-05T10:19:12.873Z,24.80
2022-10-05T10:22:04.380Z,24.80
2022-10-05T10:25:05.880Z,24.80
2022-10-05T10:28:09.387Z,24.70
2022-10-05T10:31:06.867Z,24.70
2022-10-05T10:34:08.702Z,24.70
2022-10-05T10:37:13.993Z,24.70
2022-10-05T10:40:14.096Z,24.70
2022-10-05T10:43:06.053Z,24.70
2022-10-05T10:46:03.997Z,24.60
2022-10-05T10:48:59.263Z,24.50
2022-10-05T10:52:04.610Z,24.60
2022-10-05T10:55:06.451Z,24.50
2022-10-05T10:58:16.217Z,24.50
2022-10-05T11:01:25.816Z,24.50
2022-10-05T11:04:25.653Z,24.60
2022-10-05T11:07:25.778Z,24.50
2022-10-05T11:10:22.044Z,24.60
2022-10-05T11:13:18.507Z,24.50
2022-10-05T11:16:21.838Z,24.50
2022-10-05T11:19:35.020Z,24.50
2022-10-05T11:22:46.499Z,24.40
2022-10-05T11:25:35.626Z,24.40
2022-10-05T11:28:37.594Z,24.40
2022-10-05T11:31:47.271Z,24.30
2022-10-05T11:34:27.254Z,24.30
2022-10-05T11:37:28.795Z,24.20
2022-10-05T11:40:38.520Z,24.20
2022-10-05T11:43:48.607Z,24.20
2022-10-05T11:46:32.512Z,24.10
2022-10-05T11:49:25.324Z,24.10
2022-10-05T11:52:08.996Z,24.00
2022-10-05T11:55:12.518Z,24.00
2022-10-05T11:58:18.649Z,24.00
2022-10-05T12:01:03.863Z,24.00
2022-10-05T12:03:45.941Z,23.90
2022-10-05T12:06:43.396Z,23.80
2022-10-05T12:09:34.003Z,23.70
2022-10-05T12:12:27.259Z,23.60
2022-10-05T12:15:19.732Z,23.50
2022-10-05T12:18:20.265Z,23.50
2022-10-05T12:21:01.175Z,23.50
2022-10-05T12:23:39.977Z,23.50
2022-10-05T12:26:17.042Z,23.50
2022-10-05T12:28:53.379Z,23.40
2022-10-05T12:31:46.750Z,23.50
2022-10-05T12:34:44.321Z,23.50
2022-10-05T12:37:43.473Z,23.50
2022-10-05T12:40:42.870Z,23.50
2022-10-05T12:43:31.539Z,23.50
2022-10-05T12:46:31.894Z,23.40
2022-10-05T12:49:31.685Z,23.40
2022-10-05T12:52:07.527Z,23.40
2022-10-05T12:54:52.365Z,23.40
2022-10-05T12:57:53.109Z,23.50
2022-10-05T13:00:24.344Z,23.50
2022-10-05T13:03:04.463Z,23.50
2022-10-05T13:05:52.299Z,23.50
2022-10-05T13:08:47.779Z,23.50
2022-10-05T13:11:46.217Z,23.40
2022-10-05T13:14:54.594Z,23.40
2022-10-05T13:17:52.613Z,23.40
2022-10-05T13:20:47.322Z,23.50
2022-10-05T13:23:45.599Z,23.40
2022-10-05T13:26:26.649Z,23.40
2022-10-05T13:29:14.143Z,23.40
2022-10-05T13:31:51.491Z,23.30
2022-10-05T13:34:38.884Z,23.30
2022-10-05T13:37:25.501Z,23.20
2022-10-05T13:40:17.735Z,23.20
2022-10-05T13:43:06.735Z,23.10
2022-10-05T13:45:52.696Z,23.20
2022-10-05T13:48:50.866Z,23.20
2022-10-05T13:51:30.569Z,23.20
2022-10-05T13:54:30.155Z,23.10
2022-10-05T13:57:29.517Z,23.20
2022-10-05T14:00:05.756Z,23.10
2022-10-05T14:02:44.205Z,23.10
2022-10-05T14:05:25.045Z,23.10
2022-10-05T14:08:18.531Z,23.10
2022-10-05T14:10:50.328Z,23.10
2022-10-05T14:13:26.350Z,23.00
2022-10-05T14:16:29.881Z,23.00
2022-10-05T14:19:24.105Z,23.00
2022-10-05T14:22:06.126Z,23.00
2022-10-05T14:24:44.101Z,23.00
2022-10-05T14:27:31.018Z,22.90
2022-10-05T14:30:22.546Z,22.90
2022-10-05T14:33:18.061Z,23.00
2022-10-05T14:35:53.627Z,23.00
2022-10-05T14:38:41.437Z,23.00
2022-10-05T14:41:21.794Z,23.00
2022-10-05T14:43:57.874Z,23.00
2022-10-05T14:46:32.102Z,23.00
2022-10-05T14:49:24.418Z,23.00
2022-10-05T14:51:56.213Z,23.00
2022-10-05T14:54:59.571Z,23.00
2022-10-05T14:57:45.655Z,23.10
2022-10-05T15:00:19.412Z,23.00
2022-10-05T15:03:20.692Z,22.90
2022-10-05T15:06:03.955Z,22.90
2022-10-05T15:08:47.238Z,22.90
2022-10-05T15:11:40.424Z,22.90
2022-10-05T15:14:19.863Z,22.80
2022-10-05T15:16:55.610Z,22.70
2022-10-05T15:19:46.771Z,22.60
2022-10-05T15:22:34.337Z,22.70
2022-10-05T15:25:34.818Z,22.60
2022-10-05T15:28:41.766Z,22.60
2022-10-05T15:31:30.054Z,22.50
2022-10-05T15:34:35.458Z,22.50
2022-10-05T15:37:35.052Z,22.50
2022-10-05T15:40:21.590Z,22.40
2022-10-05T15:42:55.848Z,22.50
2022-10-05T15:45:45.047Z,22.50
2022-10-05T15:48:25.666Z,22.40
2022-10-05T15:51:04.390Z,22.40
2022-10-05T15:54:22.161Z,22.40
2022-10-05T15:57:04.431Z,22.40
2022-10-05T15:59:50.249Z,22.40
2022-10-05T16:02:31.976Z,22.40
2022-10-05T16:05:17.397Z,22.40
2022-10-05T16:08:03.159Z,22.40
2022-10-05T16:10:36.884Z,22.50
2022-10-05T16:13:46.026Z,22.40
2022-10-05T16:16:57.422Z,22.50
2022-10-05T16:20:02.093Z,22.50
2022-10-05T16:22:53.394Z,22.40
2022-10-05T16:25:28.874Z,22.40
2022-10-05T16:28:18.125Z,22.50
2022-10-05T16:31:15.106Z,22.40
2022-10-05T16:34:00.982Z,22.40
2022-10-05T16:36:54.479Z,22.40
2022-10-05T16:40:01.572Z,22.40
2022-10-05T16:43:10.738Z,22.40
2022-10-05T16:46:18.403Z,22.50
2022-10-05T16:49:29.089Z,22.50
2022-10-05T16:52:04.489Z,22.50
2022-10-05T16:54:50.029Z,22.50
2022-10-05T16:57:37.226Z,22.50
2022-10-05T17:00:25.985Z,22.50
2022-10-05T17:03:27.085Z,22.50
2022-10-05T17:06:28.042Z,22.40
2022-10-05T17:09:27.547Z,22.40
2022-10-05T17:12:18.833Z,22.40
2022-10-05T17:15:10.783Z,22.40
2022-10-05T17:18:04.390Z,22.40
2022-10-05T17:20:54.214Z,22.30
2022-10-05T17:23:53.668Z,22.30
2022-10-05T17:26:59.906Z,22.30
2022-10-05T17:29:51.997Z,22.40
2022-10-05T17:32:57.310Z,22.30
2022-10-05T17:36:00.475Z,22.20
2022-10-05T17:38:54.226Z,22.20
2022-10-05T17:41:34.952Z,22.10
2022-10-05T17:44:25.168Z,22.10
2022-10-05T17:46:59.155Z,22.10
2022-10-05T17:49:49.659Z,22.10
2022-10-05T17:52:39.500Z,22.00
2022-10-05T17:55:32.067Z,22.00
2022-10-05T17:58:24.127Z,22.00
2022-10-05T18:01:16.913Z,22.00
2022-10-05T18:03:51.481Z,22.00
2022-10-05T18:06:34.211Z,22.00
2022-10-05T18:09:35.112Z,22.00
2022-10-05T18:12:30.004Z,22.00
2022-10-05T18:15:25.335Z,22.00
2022-10-05T18:18:21.313Z,22.00
2022-10-05T18:21:22.500Z,22.00
2022-10-05T18:24:26.912Z,22.00
2022-10-05T18:27:29.884Z,22.00
2022-10-05T18:30:20.860Z,22.00
2022-10-05T18:33:12.540Z,21.90
2022-10-05T18:36:07.238Z,21.90
2022-10-05T18:39:05.777Z,21.90
2022-10-05T18:42:15.764Z,22.00
2022-10-05T18:44:52.645Z,22.10
2022-10-05T18:47:47.796Z,22.10
2022-10-05T18:50:53.578Z,22.00
2022-10-05T18:53:47.807Z,22.00
2022-10-05T18:56:43.982Z,22.00
2022-10-05T18:59:43.948Z,21.90
2022-10-05T19:02:34.615Z,21.90
2022-10-05T19:05:48.910Z,21.90
2022-10-05T19:08:35.108Z,21.90
2022-10-05T19:11:37.336Z,21.90
2022-10-05T19:14:36.364Z,21.90
2022-10-05T19:17:25.064Z,21.90
2022-10-05T19:20:25.515Z,21.90
2022-10-05T19:23:20.650Z,22.00
2022-10-05T19:26:00.858Z,21.90
2022-10-05T19:29:01.037Z,22.00
2022-10-05T19:31:37.088Z,21.90
2022-10-05T19:34:31.457Z,21.90
2022-10-05T19:37:26.461Z,22.00
2022-10-05T19:40:20.863Z,21.90
2022-10-05T19:43:12.190Z,21.90
2022-10-05T19:46:07.475Z,21.90
2022-10-05T19:48:49.508Z,21.90
2022-10-05T19:51:38.978Z,21.90
2022-10-05T19:54:28.890Z,21.90
2022-10-05T19:57:04.882Z,21.90
2022-10-05T19:59:36.281Z,21.90
2022-10-05T20:02:06.572Z,21.90
2022-10-05T20:04:45.791Z,21.90
2022-10-05T20:07:19.079Z,21.90
2022-10-05T20:10:00.396Z,21.80
2022-10-05T20:12:52.838Z,21.80
2022-10-05T20:15:37.810Z,21.90
2022-10-05T20:18:57.856Z,20.50
2022-10-05T20:21:47.602Z,21.90
2022-10-05T20:24:23.134Z,21.90
2022-10-05T20:27:09.604Z,21.90
2022-10-05T20:29:44.045Z,21.80
2022-10-05T20:32:19.799Z,21.80
2022-10-05T20:34:51.470Z,21.80
2022-10-05T20:37:22.463Z,21.90
2022-10-05T20:39:54.426Z,21.90
2022-10-05T20:42:25.898Z,21.80
2022-10-05T20:44:57.045Z,21.80
2022-10-05T20:47:28.887Z,21.80
2022-10-05T20:49:59.255Z,21.80
2022-10-05T20:52:29.664Z,21.80
2022-10-05T20:55:00.833Z,21.80
2022-10-05T20:57:31.208Z,21.70
2022-10-05T21:00:01.821Z,21.70
2022-10-05T21:02:32.171Z,21.70
2022-10-05T21:05:02.536Z,21.70
2022-10-05T21:07:32.870Z,21.70
2022-10-05T21:10:05.341Z,21.70
2022-10-05T21:12:36.786Z,21.70
2022-10-05T21:15:07.522Z,21.60
2022-10-05T21:17:38.371Z,21.60
2022-10-05T21:20:09.379Z,21.60
2022-10-05T21:22:39.803Z,21.50
2022-10-05T21:25:11.009Z,21.50
2022-10-05T21:27:41.870Z,21.50
2022-10-05T21:30:12.919Z,21.50
2022-10-05T21:32:44.700Z,21.60
2022-10-05T21:35:15.409Z,21.50
2022-10-05T21:37:45.726Z,21.50
2022-10-05T21:40:16.083Z,21.50
2022-10-05T21:42:46.395Z,21.50
2022-10-05T21:45:16.669Z,21.50
2022-10-05T21:47:47.081Z,21.60
2022-10-05T21:50:17.393Z,21.60
2022-10-05T21:52:47.746Z,21.60
2022-10-05T21:55:18.972Z,21.70
2022-10-05T21:57:50.380Z,21.80
2022-10-05T22:00:21.195Z,21.70
2022-10-05T22:02:51.649Z,21.70
2022-10-05T22:05:21.961Z,21.80
2022-10-05T22:07:53.699Z,21.70
2022-10-05T22:10:24.329Z,21.70
2022-10-05T22:12:54.933Z,21.60
2022-10-05T22:15:25.160Z,21.70
2022-10-05T22:17:55.509Z,21.60
2022-10-05T22:20:26.675Z,21.50
2022-10-05T22:22:57.242Z,21.50
2022-10-05T22:25:27.522Z,21.50
2022-10-05T22:27:57.978Z,21.50
2022-10-05T22:30:28.618Z,21.60
2022-10-05T22:32:58.855Z,21.60
2022-10-05T22:35:29.859Z,21.60
2022-10-05T22:38:00.609Z,21.60
2022-10-05T22:40:30.921Z,21.60
2022-10-05T22:43:01.254Z,21.50
2022-10-05T22:45:32.750Z,21.50
2022-10-05T22:48:03.512Z,21.50
2022-10-05T22:50:34.341Z,21.50
2022-10-05T22:53:04.841Z,21.50
2022-10-05T22:55:35.089Z,21.50
2022-10-05T22:58:05.356Z,21.60
2022-10-05T23:00:57.079Z,21.60
2022-10-05T23:03:26.491Z,21.60
2022-10-05T23:06:02.651Z,21.60
2022-10-05T23:08:35.352Z,21.60
2022-10-05T23:11:13.209Z,21.70
2022-10-05T23:13:43.830Z,21.70
2022-10-05T23:16:19.135Z,21.80
2022-10-05T23:18:52.468Z,21.70
2022-10-05T23:21:24.742Z,21.70
2022-10-05T23:23:55.228Z,21.70
2022-10-05T23:26:27.525Z,21.80
2022-10-05T23:28:57.867Z,21.80
2022-10-05T23:31:31.965Z,21.90
2022-10-05T23:34:02.844Z,21.80
2022-10-05T23:36:34.323Z,21.80
2022-10-05T23:39:04.708Z,21.80
2022-10-05T23:41:34.990Z,21.80
2022-10-05T23:44:05.401Z,21.80
2022-10-05T23:46:35.623Z,21.80
2022-10-05T23:49:06.165Z,21.80
2022-10-05T23:51:36.529Z,21.80
2022-10-05T23:54:06.841Z,21.80
2022-10-05T23:56:37.301Z,21.80
2022-10-05T23:59:07.599Z,21.90
